createdAt,value
2022-08-11T00:02:00.754Z,102000.13
2022-08-11T00:04:28.604Z,101999.00
2022-08-11T00:06:56.625Z,102005.06
2022-08-11T00:09:38.985Z,102000.78
2022-08-11T00:12:14.946Z,101998.72
2022-08-11T00:14:42.742Z,101995.06
2022-08-11T00:17:12.260Z,102000.38
2022-08-11T00:20:11.969Z,102006.09
2022-08-11T00:22:31.092Z,102001.81
2022-08-11T00:25:02.826Z,101996.84
2022-08-11T00:27:34.547Z,101993.44
2022-08-11T00:30:02.582Z,101999.06
2022-08-11T00:32:31.171Z,101997.06
2022-08-11T00:35:49.928Z,101994.84
2022-08-11T00:37:50.508Z,101994.91
2022-08-11T00:40:26.040Z,101993.06
2022-08-11T00:43:01.829Z,101994.53
2022-08-11T00:45:33.986Z,101994.59
2022-08-11T00:48:06.356Z,101986.44
2022-08-11T00:50:42.925Z,101986.91
2022-08-11T00:53:31.940Z,101991.13
2022-08-11T00:56:33.536Z,101987.69
2022-08-11T00:59:34.882Z,101992.22
2022-08-11T01:02:17.374Z,101988.88
2022-08-11T01:05:25.488Z,101997.78
2022-08-11T01:08:15.204Z,102005.44
2022-08-11T01:10:56.638Z,102007.75
2022-08-11T01:13:51.975Z,102003.03
2022-08-11T01:16:55.308Z,102005.88
2022-08-11T01:20:44.918Z,102006.13
2022-08-11T01:23:00.731Z,102007.72
2022-08-11T01:25:56.811Z,101999.88
2022-08-11T01:28:56.599Z,101990.00
2022-08-11T01:31:52.618Z,102007.19
2022-08-11T01:34:50.969Z,102000.59
2022-08-11T01:37:48.785Z,102003.69
2022-08-11T01:40:41.300Z,102004.00
2022-08-11T01:43:37.617Z,102002.22
2022-08-11T01:46:08.287Z,102000.88
2022-08-11T01:48:41.888Z,102001.47
2022-08-11T01:51:17.498Z,102003.09
2022-08-11T01:53:56.489Z,102006.19
2022-08-11T01:56:34.951Z,102003.56
2022-08-11T01:59:11.594Z,102005.53
2022-08-11T02:01:58.174Z,102001.69
2022-08-11T02:04:32.395Z,102000.72
2022-08-11T02:07:09.527Z,101999.66
2022-08-11T02:09:56.934Z,102000.50
2022-08-11T02:12:45.477Z,101995.97
2022-08-11T02:15:28.491Z,102003.88
2022-08-11T02:18:05.704Z,101990.84
2022-08-11T02:20:59.541Z,101989.25
2022-08-11T02:24:06.112Z,101988.53
2022-08-11T02:26:37.476Z,101994.97
2022-08-11T02:29:13.197Z,101991.72
2022-08-11T02:32:28.825Z,101991.41
2022-08-11T02:35:03.091Z,101998.56
2022-08-11T02:37:45.069Z,101991.72
2022-08-11T02:40:22.981Z,101996.22
2022-08-11T02:42:57.067Z,101990.31
2022-08-11T02:45:41.129Z,101994.34
2022-08-11T02:48:35.240Z,101989.91
2022-08-11T02:51:22.222Z,101989.19
2022-08-11T02:53:56.339Z,101988.41
2022-08-11T02:56:44.431Z,101987.69
2022-08-11T02:59:38.928Z,101987.13
2022-08-11T03:02:12.961Z,101994.59
2022-08-11T03:05:02.106Z,101983.44
2022-08-11T03:07:34.902Z,101996.94
2022-08-11T03:10:11.599Z,101992.28
2022-08-11T03:13:20.035Z,101985.78
2022-08-11T03:16:10.376Z,101991.81
2022-08-11T03:18:43.913Z,101987.31
2022-08-11T03:21:21.085Z,101993.34
2022-08-11T03:23:55.210Z,101983.34
2022-08-11T03:26:27.204Z,101991.53
2022-08-11T03:29:04.365Z,101989.63
2022-08-11T03:31:36.844Z,101989.13
2022-08-11T03:34:07.822Z,101992.22
2022-08-11T03:37:17.348Z,101999.03
2022-08-11T03:39:57.127Z,101991.69
2022-08-11T03:42:29.998Z,101984.63
2022-08-11T03:45:07.181Z,101983.28
2022-08-11T03:48:04.286Z,101986.53
2022-08-11T03:50:50.723Z,101984.94
2022-08-11T03:53:34.246Z,101981.94
2022-08-11T03:56:21.072Z,101984.13
2022-08-11T03:59:17.552Z,101992.44
2022-08-11T04:02:09.877Z,101996.78
2022-08-11T04:05:11.180Z,101991.31
2022-08-11T04:08:15.594Z,101989.41
2022-08-11T04:11:17.150Z,101994.91
2022-08-11T04:14:34.625Z,101993.03
2022-08-11T04:17:35.542Z,101991.38
2022-08-11T04:20:20.345Z,101989.78
2022-08-11T04:22:55.903Z,101991.41
2022-08-11T04:25:59.505Z,101993.88
2022-08-11T04:28:55.800Z,101995.28
2022-08-11T04:31:51.566Z,102001.06
2022-08-11T04:34:45.381Z,102002.16
2022-08-11T04:37:35.201Z,101995.56
2022-08-11T04:40:11.663Z,101991.75
2022-08-11T04:43:32.270Z,101995.63
2022-08-11T04:46:25.165Z,101987.16
2022-08-11T04:49:26.208Z,101995.59
2022-08-11T04:52:53.054Z,101989.59
2022-08-11T04:55:54.800Z,101984.63
2022-08-11T04:58:43.105Z,101992.03
2022-08-11T05:01:38.720Z,101994.78
2022-08-11T05:04:37.607Z,101991.50
2022-08-11T05:07:34.324Z,101993.69
2022-08-11T05:10:15.254Z,101981.06
2022-08-11T05:12:48.023Z,101988.72
2022-08-11T05:15:42.767Z,101981.91
2022-08-11T05:18:33.543Z,101991.72
2022-08-11T05:21:23.807Z,101983.47
2022-08-11T05:24:14.937Z,101985.44
2022-08-11T05:27:06.896Z,101985.69
2022-08-11T05:30:01.100Z,101989.56
2022-08-11T05:32:53.645Z,101993.03
2022-08-11T05:36:02.189Z,101989.03
2022-08-11T05:38:37.281Z,101993.28
2022-08-11T05:41:25.861Z,101995.78
2022-08-11T05:44:21.762Z,101990.28
2022-08-11T05:47:09.660Z,101995.16
2022-08-11T05:49:57.801Z,101991.81
2022-08-11T05:52:45.272Z,101992.97
2022-08-11T05:55:35.072Z,101993.72
2022-08-11T05:58:06.152Z,101993.66
2022-08-11T06:00:42.837Z,101988.25
2022-08-11T06:03:13.492Z,101988.78
2022-08-11T06:05:43.539Z,101985.16
2022-08-11T06:08:13.344Z,101995.28
2022-08-11T06:10:43.540Z,101997.19
2022-08-11T06:13:12.079Z,101996.38
2022-08-11T06:15:45.925Z,101994.44
2022-08-11T06:18:16.223Z,101991.16
2022-08-11T06:20:49.720Z,101999.81
2022-08-11T06:23:20.348Z,101999.03
2022-08-11T06:25:48.486Z,101990.53
2022-08-11T06:28:20.757Z,101997.47
2022-08-11T06:30:49.811Z,102004.84
2022-08-11T06:33:22.637Z,101995.97
2022-08-11T06:35:58.569Z,101997.88
2022-08-11T06:38:39.793Z,101991.88
2022-08-11T06:41:32.098Z,101992.13
2022-08-11T06:44:17.195Z,101996.88
2022-08-11T06:46:47.605Z,101998.88
2022-08-11T06:49:36.020Z,102003.59
2022-08-11T06:52:06.147Z,102002.97
2022-08-11T06:54:35.635Z,102002.13
2022-08-11T06:57:30.531Z,102000.47
2022-08-11T07:00:28.892Z,102008.38
2022-08-11T07:03:03.981Z,102004.53
2022-08-11T07:05:44.511Z,102000.19
2022-08-11T07:08:55.401Z,101992.66
2022-08-11T07:12:04.732Z,101991.16
2022-08-11T07:14:50.764Z,101992.28
2022-08-11T07:17:21.685Z,101987.13
2022-08-11T07:20:10.650Z,101997.97
2022-08-11T07:22:58.208Z,101987.78
2022-08-11T07:25:44.080Z,101986.03
2022-08-11T07:28:31.714Z,101983.59
2022-08-11T07:31:04.424Z,101990.00
2022-08-11T07:34:08.491Z,101985.19
2022-08-11T07:36:31.725Z,101984.56
2022-08-11T07:39:03.084Z,101987.31
2022-08-11T07:41:35.251Z,101987.13
2022-08-11T07:44:09.674Z,101980.22
2022-08-11T07:46:58.064Z,101988.47
2022-08-11T07:49:45.326Z,101980.13
2022-08-11T07:52:30.399Z,101988.06
2022-08-11T07:55:03.031Z,101988.69
2022-08-11T07:58:14.606Z,101991.25
2022-08-11T08:00:59.291Z,101989.00
2022-08-11T08:03:54.239Z,101988.22
2022-08-11T08:06:40.943Z,101997.97
2022-08-11T08:09:26.865Z,101993.88
2022-08-11T08:12:13.929Z,101987.09
2022-08-11T08:15:00.974Z,102001.31
2022-08-11T08:18:20.449Z,101990.69
2022-08-11T08:20:37.909Z,101992.72
2022-08-11T08:23:06.564Z,101992.53
2022-08-11T08:25:35.621Z,101985.81
2022-08-11T08:28:07.500Z,101999.16
2022-08-11T08:30:50.753Z,101999.09
2022-08-11T08:33:22.170Z,101995.31
2022-08-11T08:36:11.062Z,101994.53
2022-08-11T08:38:40.678Z,101991.38
2022-08-11T08:41:09.109Z,101994.47
2022-08-11T08:43:48.500Z,101982.19
2022-08-11T08:46:19.800Z,101981.66
2022-08-11T08:48:48.216Z,101981.78
2022-08-11T08:52:31.941Z,101981.06
2022-08-11T08:54:25.363Z,101976.69
2022-08-11T08:56:56.172Z,101972.63
2022-08-11T08:59:27.330Z,101972.16
2022-08-11T09:02:15.357Z,101975.69
2022-08-11T09:04:46.174Z,101965.06
2022-08-11T09:07:17.654Z,101964.53
2022-08-11T09:09:46.589Z,101962.88
2022-08-11T09:12:14.481Z,101951.31
2022-08-11T09:15:04.235Z,101960.75
2022-08-11T09:17:34.630Z,101963.25
2022-08-11T09:20:04.784Z,101952.97
2022-08-11T09:23:24.239Z,101963.00
2022-08-11T09:25:59.748Z,101961.31
2022-08-11T09:28:30.536Z,101955.22
2022-08-11T09:31:02.525Z,101959.59
2022-08-11T09:33:31.470Z,101947.72
2022-08-11T09:36:19.508Z,101953.41
2022-08-11T09:39:05.907Z,101939.28
2022-08-11T09:42:01.300Z,101941.03
2022-08-11T09:44:40.232Z,101931.22
2022-08-11T09:47:14.953Z,101933.00
2022-08-11T09:49:44.502Z,101926.72
2022-08-11T09:52:13.735Z,101928.19
2022-08-11T09:54:42.300Z,101933.75
2022-08-11T09:57:33.474Z,101922.16
2022-08-11T10:00:12.880Z,101916.31
2022-08-11T10:02:44.525Z,101921.09
2022-08-11T10:05:31.181Z,101913.47
2022-08-11T10:07:59.448Z,101908.19
2022-08-11T10:10:27.205Z,101906.00
2022-08-11T10:12:59.695Z,101905.66
2022-08-11T10:15:37.910Z,101901.78
2022-08-11T10:18:27.994Z,101902.81
2022-08-11T10:20:59.224Z,101900.94
2022-08-11T10:24:01.033Z,101892.84
2022-08-11T10:26:55.301Z,101887.88
2022-08-11T10:29:45.381Z,101878.34
2022-08-11T10:32:46.317Z,101879.31
2022-08-11T10:35:28.508Z,101868.78
2022-08-11T10:38:06.744Z,101871.13
2022-08-11T10:40:38.915Z,101863.28
2022-08-11T10:43:07.953Z,101873.22
2022-08-11T10:45:54.882Z,101868.66
2022-08-11T10:48:23.440Z,101868.44
2022-08-11T10:51:10.487Z,101867.63
2022-08-11T10:53:58.444Z,101860.28
2022-08-11T10:56:46.549Z,101861.72
2022-08-11T10:59:15.548Z,101863.78
2022-08-11T11:01:44.734Z,101857.91
2022-08-11T11:04:15.765Z,101855.53
2022-08-11T11:06:51.913Z,101850.22
2022-08-11T11:09:22.865Z,101849.25
2022-08-11T11:12:10.113Z,101849.69
2022-08-11T11:14:59.052Z,101845.56
2022-08-11T11:17:47.381Z,101854.63
2022-08-11T11:20:36.224Z,101853.53
2022-08-11T11:23:12.612Z,101839.94
2022-08-11T11:26:11.179Z,101840.94
2022-08-11T11:29:22.320Z,101841.88
2022-08-11T11:32:00.566Z,101838.88
2022-08-11T11:34:52.960Z,101852.94
2022-08-11T11:37:23.868Z,101838.53
2022-08-11T11:39:53.914Z,101834.25
2022-08-11T11:42:22.407Z,101840.69
2022-08-11T11:44:53.094Z,101831.72
2022-08-11T11:47:23.909Z,101830.31
2022-08-11T11:49:51.757Z,101838.38
2022-08-11T11:52:21.770Z,101836.09
2022-08-11T11:54:51.820Z,101836.81
2022-08-11T11:57:39.763Z,101839.44
2022-08-11T12:00:33.839Z,101828.03
2022-08-11T12:03:04.935Z,101824.50
2022-08-11T12:05:33.271Z,101830.19
2022-08-11T12:08:15.197Z,101832.28
2022-08-11T12:10:47.994Z,101827.38
2022-08-11T12:13:35.940Z,101825.56
2022-08-11T12:16:34.148Z,101813.84
2022-08-11T12:18:53.998Z,101813.06
2022-08-11T12:21:22.032Z,101813.75
2022-08-11T12:24:08.553Z,101811.22
2022-08-11T12:27:15.750Z,101797.94
2022-08-11T12:29:54.856Z,101811.00
2022-08-11T12:32:24.969Z,101807.41
2022-08-11T12:34:53.506Z,101805.31
2022-08-11T12:37:24.616Z,101803.69
2022-08-11T12:40:42.619Z,101797.34
2022-08-11T12:43:21.761Z,101796.91
2022-08-11T12:45:53.998Z,101789.13
2022-08-11T12:48:58.297Z,101787.25
2022-08-11T12:52:13.915Z,101780.28
2022-08-11T12:54:45.972Z,101777.34
2022-08-11T12:57:36.882Z,101774.00
2022-08-11T13:00:25.478Z,101770.06
2022-08-11T13:03:12.641Z,101777.66
2022-08-11T13:05:45.179Z,101774.44
2022-08-11T13:08:14.936Z,101769.34
2022-08-11T13:11:00.889Z,101773.66
2022-08-11T13:13:52.984Z,101768.91
2022-08-11T13:16:17.385Z,101757.81
2022-08-11T13:18:46.628Z,101757.22
2022-08-11T13:21:20.025Z,101761.03
2022-08-11T13:24:00.792Z,101753.41
2022-08-11T13:26:43.488Z,101745.22
2022-08-11T13:29:20.059Z,101745.56
2022-08-11T13:31:48.285Z,101744.19
2022-08-11T13:34:18.127Z,101746.47
2022-08-11T13:36:48.889Z,101742.88
2022-08-11T13:39:17.350Z,101732.94
2022-08-11T13:41:47.647Z,101740.47
2022-08-11T13:44:23.106Z,101742.75
2022-08-11T13:46:53.066Z,101742.03
2022-08-11T13:49:23.102Z,101740.44
2022-08-11T13:51:51.490Z,101739.19
2022-08-11T13:54:20.858Z,101728.69
2022-08-11T13:56:50.040Z,101727.50
2022-08-11T13:59:23.845Z,101729.09
2022-08-11T14:02:19.406Z,101726.09
2022-08-11T14:04:50.880Z,101717.94
2022-08-11T14:07:22.181Z,101722.88
2022-08-11T14:09:56.431Z,101715.81
2022-08-11T14:12:44.328Z,101719.41
2022-08-11T14:15:20.003Z,101714.31
2022-08-11T14:17:51.972Z,101712.16
2022-08-11T14:20:39.872Z,101710.28
2022-08-11T14:23:10.735Z,101714.31
2022-08-11T14:25:59.697Z,101706.56
2022-08-11T14:28:32.697Z,101707.25
2022-08-11T14:31:05.200Z,101703.22
2022-08-11T14:33:58.857Z,101703.56
2022-08-11T14:36:23.959Z,101707.97
2022-08-11T14:38:53.380Z,101690.03
2022-08-11T14:42:11.356Z,101692.69
2022-08-11T14:44:44.648Z,101694.97
2022-08-11T14:47:24.530Z,101690.38
2022-08-11T14:50:02.559Z,101689.00
2022-08-11T14:52:45.653Z,101685.41
2022-08-11T14:55:32.714Z,101696.31
2022-08-11T14:58:03.052Z,101683.09
2022-08-11T15:00:32.248Z,101692.56
2022-08-11T15:03:12.119Z,101685.66
2022-08-11T15:05:54.191Z,101674.53
2022-08-11T15:08:46.090Z,101679.66
2022-08-11T15:11:29.430Z,101676.81
2022-08-11T15:13:57.632Z,101676.63
2022-08-11T15:16:40.358Z,101673.66
2022-08-11T15:19:08.489Z,101670.53
2022-08-11T15:21:53.952Z,101671.53
2022-08-11T15:24:24.115Z,101658.53
2022-08-11T15:27:13.604Z,101661.31
2022-08-11T15:30:00.410Z,101656.19
2022-08-11T15:32:49.033Z,101657.19
2022-08-11T15:35:33.696Z,101648.00
2022-08-11T15:38:08.239Z,101650.09
2022-08-11T15:40:57.805Z,101655.56
2022-08-11T15:43:45.216Z,101651.28
2022-08-11T15:46:15.975Z,101640.47
2022-08-11T15:48:46.141Z,101645.72
2022-08-11T15:51:25.035Z,101639.97
2022-08-11T15:53:57.071Z,101637.59
2022-08-11T15:56:29.136Z,101636.88
2022-08-11T15:59:42.423Z,101639.16
2022-08-11T16:02:22.710Z,101638.22
2022-08-11T16:04:51.200Z,101634.19
2022-08-11T16:07:26.661Z,101642.91
2022-08-11T16:10:00.545Z,101632.50
2022-08-11T16:12:32.017Z,101628.25
2022-08-11T16:15:21.865Z,101634.25
2022-08-11T16:17:51.828Z,101630.94
2022-08-11T16:20:22.289Z,101626.88
2022-08-11T16:23:01.512Z,101624.41
2022-08-11T16:26:30.362Z,101632.06
2022-08-11T16:28:21.514Z,101625.97
2022-08-11T16:30:49.635Z,101621.09
2022-08-11T16:33:48.286Z,101630.69
2022-08-11T16:36:29.780Z,101624.09
2022-08-11T16:38:58.969Z,101632.63
2022-08-11T16:41:47.462Z,101628.78
2022-08-11T16:44:37.622Z,101630.78
2022-08-11T16:47:07.143Z,101626.69
2022-08-11T16:49:37.156Z,101628.31
2022-08-11T16:52:05.841Z,101613.84
2022-08-11T16:54:34.293Z,101618.88
2022-08-11T16:57:20.145Z,101615.56
2022-08-11T16:59:50.649Z,101610.53
2022-08-11T17:02:42.134Z,101610.88
2022-08-11T17:05:30.730Z,101608.44
2022-08-11T17:08:18.220Z,101610.34
2022-08-11T17:11:07.803Z,101607.56
2022-08-11T17:13:38.205Z,101614.03
2022-08-11T17:16:11.442Z,101609.22
2022-08-11T17:18:47.318Z,101602.97
2022-08-11T17:21:18.721Z,101601.22
2022-08-11T17:23:52.511Z,101605.59
2022-08-11T17:26:23.132Z,101610.97
2022-08-11T17:28:56.196Z,101616.66
2022-08-11T17:31:43.505Z,101614.44
2022-08-11T17:34:29.845Z,101617.44
2022-08-11T17:36:57.822Z,101619.44
2022-08-11T17:39:30.041Z,101616.06
2022-08-11T17:42:16.681Z,101616.88
2022-08-11T17:45:02.613Z,101616.63
2022-08-11T17:47:49.265Z,101613.50
2022-08-11T17:50:18.384Z,101606.28
2022-08-11T17:53:06.230Z,101625.16
2022-08-11T17:55:53.899Z,101624.59
2022-08-11T17:58:39.978Z,101625.38
2022-08-11T18:01:10.038Z,101613.00
2022-08-11T18:03:39.940Z,101617.97
2022-08-11T18:06:12.833Z,101628.31
2022-08-11T18:09:02.479Z,101627.22
2022-08-11T18:12:10.057Z,101627.78
2022-08-11T18:14:57.698Z,101624.34
2022-08-11T18:17:43.193Z,101628.25
2022-08-11T18:20:29.997Z,101639.88
2022-08-11T18:23:16.892Z,101634.06
2022-08-11T18:26:07.491Z,101632.59
2022-08-11T18:28:57.723Z,101637.31
2022-08-11T18:31:43.752Z,101643.06
2022-08-11T18:34:32.873Z,101645.56
2022-08-11T18:37:24.719Z,101646.16
2022-08-11T18:40:17.580Z,101647.72
2022-08-11T18:43:05.739Z,101653.47
2022-08-11T18:45:56.498Z,101652.63
2022-08-11T18:48:54.113Z,101656.25
2022-08-11T18:51:41.085Z,101653.19
2022-08-11T18:54:29.184Z,101662.81
2022-08-11T18:57:18.513Z,101658.25
2022-08-11T19:00:04.742Z,101666.53
2022-08-11T19:02:50.961Z,101664.88
2022-08-11T19:06:37.072Z,101669.06
2022-08-11T19:08:47.107Z,101665.78
2022-08-11T19:11:34.595Z,101669.75
2022-08-11T19:14:28.966Z,101672.97
2022-08-11T19:17:15.343Z,101676.50
2022-08-11T19:20:25.707Z,101677.50
2022-08-11T19:23:12.175Z,101675.84
2022-08-11T19:25:58.394Z,101676.81
2022-08-11T19:28:45.508Z,101684.53
2022-08-11T19:31:31.057Z,101677.91
2022-08-11T19:34:17.097Z,101688.09
2022-08-11T19:37:03.908Z,101682.22
2022-08-11T19:39:50.036Z,101682.03
2022-08-11T19:42:35.525Z,101680.75
2022-08-11T19:45:23.314Z,101670.19
2022-08-11T19:48:30.848Z,101681.91
2022-08-11T19:51:14.324Z,101681.06
2022-08-11T19:54:00.789Z,101674.41
2022-08-11T19:56:46.352Z,101686.03
2022-08-11T19:59:31.984Z,101673.91
2022-08-11T20:02:18.752Z,101683.53
2022-08-11T20:05:04.566Z,101683.78
2022-08-11T20:07:50.915Z,101685.81
2022-08-11T20:10:39.258Z,101683.03
2022-08-11T20:13:26.594Z,101689.03
2022-08-11T20:16:13.851Z,101692.25
2022-08-11T20:19:01.037Z,101689.22
2022-08-11T20:21:48.784Z,101681.56
2022-08-11T20:24:36.505Z,101682.41
2022-08-11T20:27:24.577Z,101684.50
2022-08-11T20:30:11.711Z,101686.16
2022-08-11T20:32:58.545Z,101685.63
2022-08-11T20:35:45.299Z,101684.50
2022-08-11T20:38:32.414Z,101684.81
2022-08-11T20:41:19.179Z,101686.94
2022-08-11T20:44:09.196Z,101693.56
2022-08-11T20:46:56.967Z,101698.81
2022-08-11T20:49:50.354Z,101697.63
2022-08-11T20:52:47.535Z,101692.63
2022-08-11T20:55:46.420Z,101695.22
2022-08-11T21:01:44.726Z,101697.31
2022-08-11T21:04:30.788Z,101692.94
2022-08-11T21:07:27.600Z,101699.13
2022-08-11T21:10:23.688Z,101691.97
2022-08-11T21:13:25.706Z,101702.34
2022-08-11T21:16:26.381Z,101709.50
2022-08-11T21:19:15.981Z,101709.31
2022-08-11T21:22:04.536Z,101709.69
2022-08-11T21:24:50.913Z,101705.47
2022-08-11T21:27:38.974Z,101700.56
2022-08-11T21:30:25.781Z,101703.16
2022-08-11T21:33:11.639Z,101698.00
2022-08-11T21:35:57.029Z,101703.31
2022-08-11T21:38:42.750Z,101709.50
2022-08-11T21:41:28.727Z,101709.16
2022-08-11T21:44:16.040Z,101713.56
2022-08-11T21:47:03.028Z,101715.03
2022-08-11T21:49:49.144Z,101707.00
2022-08-11T21:52:34.912Z,101707.44
2022-08-11T21:55:21.871Z,101715.50
2022-08-11T21:58:07.237Z,101717.28
2022-08-11T22:00:53.872Z,101715.34
2022-08-11T22:03:49.809Z,101716.16
2022-08-11T22:06:35.859Z,101715.81
2022-08-11T22:09:23.517Z,101716.75
2022-08-11T22:12:33.791Z,101724.59
2022-08-11T22:15:14.701Z,101721.66
2022-08-11T22:18:01.797Z,101715.66
2022-08-11T22:20:48.207Z,101719.72
2022-08-11T22:23:35.976Z,101711.13
2022-08-11T22:26:22.285Z,101718.03
2022-08-11T22:29:07.841Z,101714.44
2022-08-11T22:31:53.998Z,101718.50
2022-08-11T22:34:51.194Z,101706.94
2022-08-11T22:37:39.243Z,101712.44
2022-08-11T22:40:26.156Z,101712.81
2022-08-11T22:43:11.439Z,101711.66
2022-08-11T22:45:56.616Z,101709.09
2022-08-11T22:48:44.142Z,101709.09
2022-08-11T22:51:31.793Z,101713.31
2022-08-11T22:54:18.452Z,101716.72
2022-08-11T22:57:04.101Z,101716.38
2022-08-11T22:59:49.628Z,101713.16
2022-08-11T23:02:35.093Z,101718.19
2022-08-11T23:05:20.617Z,101715.13
2022-08-11T23:08:07.364Z,101712.19
2022-08-11T23:10:52.797Z,101718.66
2022-08-11T23:13:38.756Z,101715.72
2022-08-11T23:16:24.987Z,101715.09
2022-08-11T23:19:10.238Z,101713.59
2022-08-11T23:21:56.036Z,101718.66
2022-08-11T23:24:43.964Z,101712.00
2022-08-11T23:27:29.310Z,101722.78
2022-08-11T23:30:17.111Z,101719.41
2022-08-11T23:33:05.499Z,101712.91
2022-08-11T23:35:56.484Z,101715.03
2022-08-11T23:38:43.405Z,101708.06
2022-08-11T23:41:32.168Z,101712.38
2022-08-11T23:44:17.862Z,101708.66
2022-08-11T23:47:03.600Z,101714.50
2022-08-11T23:49:48.750Z,101715.41
2022-08-11T23:52:35.064Z,101712.75
2022-08-11T23:55:22.804Z,101712.53
2022-08-11T23:58:09.442Z,101716.78
